createdAt,value
2018-06-24T00:02:06.976Z,69.96
2018-06-24T00:04:35.616Z,69.60
2018-06-24T00:07:04.222Z,70.02
2018-06-24T00:09:32.806Z,70.18
2018-06-24T00:12:01.397Z,70.63
2018-06-24T00:14:30.019Z,70.87
2018-06-24T00:16:58.626Z,71.14
2018-06-24T00:19:28.217Z,71.48
2018-06-24T00:21:56.813Z,71.70
2018-06-24T00:24:25.490Z,72.10
2018-06-24T00:26:54.075Z,72.65
2018-06-24T00:29:22.676Z,73.61
2018-06-24T00:31:51.275Z,72.98
2018-06-24T00:34:19.927Z,72.95
2018-06-24T00:36:48.545Z,72.62
2018-06-24T00:39:17.150Z,72.37
2018-06-24T00:41:45.753Z,72.72
2018-06-24T00:44:14.373Z,72.99
2018-06-24T00:46:42.970Z,72.26
2018-06-24T00:49:11.629Z,71.59
2018-06-24T00:51:40.278Z,71.89
2018-06-24T00:54:08.941Z,71.90
2018-06-24T00:56:37.499Z,71.96
2018-06-24T00:59:06.094Z,72.34
2018-06-24T01:01:34.759Z,71.81
2018-06-24T01:04:03.341Z,71.46
2018-06-24T01:06:31.974Z,72.75
2018-06-24T01:09:00.647Z,71.72
2018-06-24T01:11:29.263Z,71.76
2018-06-24T01:13:57.864Z,71.45
2018-06-24T01:16:26.478Z,72.07
2018-06-24T01:18:55.452Z,71.51
2018-06-24T01:21:24.092Z,71.92
2018-06-24T01:23:52.739Z,71.69
2018-06-24T01:26:21.355Z,72.21
2018-06-24T01:28:49.950Z,72.43
2018-06-24T01:31:18.583Z,72.47
2018-06-24T01:33:47.200Z,72.08
2018-06-24T01:36:15.842Z,72.41
2018-06-24T01:38:44.448Z,72.43
2018-06-24T01:41:13.029Z,72.48
2018-06-24T01:43:41.680Z,72.49
2018-06-24T01:46:10.604Z,73.11
2018-06-24T01:48:39.174Z,73.00
2018-06-24T01:51:07.792Z,72.44
2018-06-24T01:53:36.395Z,72.44
2018-06-24T01:56:04.997Z,72.63
2018-06-24T01:58:33.679Z,73.51
2018-06-24T02:01:02.597Z,73.89
2018-06-24T02:03:31.189Z,73.56
2018-06-24T02:05:59.817Z,73.60
2018-06-24T02:08:28.425Z,73.57
2018-06-24T02:10:57.035Z,73.91
2018-06-24T02:13:25.639Z,73.68
2018-06-24T02:15:54.534Z,73.94
2018-06-24T02:18:23.111Z,74.76
2018-06-24T02:20:51.774Z,75.55
2018-06-24T02:23:20.359Z,75.88
2018-06-24T02:25:49.032Z,75.92
2018-06-24T02:28:17.714Z,75.70
2018-06-24T02:30:46.451Z,76.58
2018-06-24T02:33:15.157Z,76.87
2018-06-24T02:35:43.755Z,77.69
2018-06-24T02:38:12.439Z,77.89
2018-06-24T02:40:41.036Z,77.61
2018-06-24T02:43:10.011Z,78.06
2018-06-24T02:45:38.647Z,77.86
2018-06-24T02:48:07.263Z,78.00
2018-06-24T02:50:35.934Z,78.14
2018-06-24T02:53:04.956Z,78.68
2018-06-24T02:55:33.571Z,79.17
2018-06-24T02:58:02.143Z,79.26
2018-06-24T03:00:30.765Z,79.21
2018-06-24T03:02:59.382Z,79.60
2018-06-24T03:05:28.065Z,79.86
2018-06-24T03:07:57.242Z,80.03
2018-06-24T03:10:25.869Z,80.00
2018-06-24T03:12:54.486Z,80.02
2018-06-24T03:15:23.158Z,80.03
2018-06-24T03:17:51.785Z,80.64
2018-06-24T03:20:20.405Z,80.62
2018-06-24T03:22:49.011Z,80.60
2018-06-24T03:25:17.736Z,80.79
2018-06-24T03:27:46.335Z,80.36
2018-06-24T03:30:14.991Z,80.26
2018-06-24T03:32:43.670Z,80.02
2018-06-24T03:35:12.327Z,80.13
2018-06-24T03:37:40.982Z,79.74
2018-06-24T03:40:09.613Z,79.54
2018-06-24T03:42:38.254Z,79.69
2018-06-24T03:45:07.199Z,79.78
2018-06-24T03:47:35.808Z,79.58
2018-06-24T03:50:04.494Z,79.51
2018-06-24T03:52:33.107Z,79.37
2018-06-24T03:55:01.718Z,79.05
2018-06-24T03:57:30.348Z,79.15
2018-06-24T03:59:58.931Z,78.86
2018-06-24T04:02:27.535Z,78.47
2018-06-24T04:04:56.194Z,78.47
2018-06-24T04:07:24.822Z,78.52
2018-06-24T04:09:53.415Z,78.04
2018-06-24T04:12:22.092Z,77.79
2018-06-24T04:14:50.715Z,77.94
2018-06-24T04:17:19.432Z,78.27
2018-06-24T04:19:48.050Z,78.23
2018-06-24T04:22:16.693Z,78.22
2018-06-24T04:24:45.695Z,78.25
2018-06-24T04:27:14.363Z,77.28
2018-06-24T04:29:43.366Z,77.20
2018-06-24T04:32:12.223Z,76.77
2018-06-24T04:34:40.888Z,76.62
2018-06-24T04:37:09.520Z,76.45
2018-06-24T04:39:38.167Z,76.22
2018-06-24T04:42:06.851Z,75.79
2018-06-24T04:44:35.526Z,75.29
2018-06-24T04:47:04.142Z,75.46
2018-06-24T04:49:32.766Z,74.32
2018-06-24T04:52:01.418Z,74.86
2018-06-24T04:54:30.007Z,73.44
2018-06-24T04:56:58.640Z,73.36
2018-06-24T04:59:27.540Z,73.02
2018-06-24T05:01:56.456Z,72.58
2018-06-24T05:04:25.062Z,74.38
2018-06-24T05:06:53.806Z,71.42
2018-06-24T05:09:22.454Z,68.94
2018-06-24T05:11:51.443Z,68.10
2018-06-24T05:14:20.077Z,66.89
2018-06-24T05:16:48.739Z,66.54
2018-06-24T05:19:17.335Z,63.25
2018-06-24T05:21:46.160Z,60.61
2018-06-24T05:24:14.764Z,58.35
2018-06-24T05:26:43.405Z,57.70
2018-06-24T05:29:12.007Z,56.23
2018-06-24T05:31:40.854Z,56.30
2018-06-24T05:34:09.454Z,56.83
2018-06-24T05:36:38.071Z,56.50
2018-06-24T05:39:09.706Z,55.30
2018-06-24T05:41:38.314Z,54.60
2018-06-24T05:44:07.035Z,53.89
2018-06-24T05:46:35.692Z,52.62
2018-06-24T05:49:04.362Z,50.67
2018-06-24T05:51:32.969Z,50.35
2018-06-24T05:54:01.617Z,49.17
2018-06-24T05:56:30.237Z,49.44
2018-06-24T05:58:58.875Z,47.48
2018-06-24T06:01:27.490Z,48.52
2018-06-24T06:03:56.257Z,49.20
2018-06-24T06:06:24.846Z,50.92
2018-06-24T06:08:53.447Z,50.21
2018-06-24T06:11:22.077Z,47.91
2018-06-24T06:13:51.047Z,47.54
2018-06-24T06:16:19.748Z,46.46
2018-06-24T06:18:48.380Z,45.80
2018-06-24T06:21:17.342Z,45.27
2018-06-24T06:23:45.959Z,43.42
2018-06-24T06:26:14.548Z,43.26
2018-06-24T06:28:43.161Z,42.42
2018-06-24T06:31:11.746Z,41.19
2018-06-24T06:33:40.341Z,40.70
2018-06-24T06:36:09.057Z,41.19
2018-06-24T06:38:37.696Z,40.72
2018-06-24T06:41:06.314Z,40.54
2018-06-24T06:43:35.006Z,39.13
2018-06-24T06:46:07.480Z,37.44
2018-06-24T06:48:36.156Z,37.82
2018-06-24T06:51:04.883Z,38.66
2018-06-24T06:53:33.466Z,37.33
2018-06-24T06:56:02.395Z,38.05
2018-06-24T06:58:31.041Z,37.32
2018-06-24T07:00:59.733Z,38.92
2018-06-24T07:03:28.408Z,37.74
2018-06-24T07:05:56.986Z,36.44
2018-06-24T07:08:25.638Z,37.30
2018-06-24T07:10:54.291Z,37.04
2018-06-24T07:13:22.933Z,36.87
2018-06-24T07:15:51.579Z,36.96
2018-06-24T07:18:20.247Z,35.89
2018-06-24T07:20:48.963Z,35.53
2018-06-24T07:23:19.406Z,36.14
2018-06-24T07:25:48.041Z,37.47
2018-06-24T07:28:16.636Z,35.63
2018-06-24T07:30:45.842Z,35.60
2018-06-24T07:33:15.028Z,34.72
2018-06-24T07:35:43.617Z,33.22
2018-06-24T07:38:12.318Z,32.56
2018-06-24T07:40:41.194Z,32.83
2018-06-24T07:43:09.827Z,33.77
2018-06-24T07:45:38.491Z,30.74
2018-06-24T07:48:07.187Z,32.09
2018-06-24T07:50:35.735Z,33.59
2018-06-24T07:53:04.415Z,34.41
2018-06-24T07:55:33.246Z,37.56
2018-06-24T07:58:01.905Z,37.14
2018-06-24T08:00:30.573Z,36.56
2018-06-24T08:02:59.237Z,37.12
2018-06-24T08:05:27.846Z,35.10
2018-06-24T08:07:56.507Z,34.18
2018-06-24T08:10:25.086Z,34.01
2018-06-24T08:12:53.714Z,33.56
2018-06-24T08:15:22.276Z,33.48
2018-06-24T08:17:50.881Z,33.32
2018-06-24T08:20:19.464Z,30.75
2018-06-24T08:22:48.160Z,31.63
2018-06-24T08:25:16.754Z,32.52
2018-06-24T08:27:45.350Z,34.14
2018-06-24T08:30:13.936Z,34.40
2018-06-24T08:32:43.012Z,33.02
2018-06-24T08:35:11.593Z,32.26
2018-06-24T08:37:40.516Z,34.03
2018-06-24T08:40:09.174Z,34.32
2018-06-24T08:42:37.897Z,33.88
2018-06-24T08:45:06.654Z,32.80
2018-06-24T08:47:35.308Z,32.55
2018-06-24T08:50:03.950Z,32.53
2018-06-24T08:52:32.547Z,31.38
2018-06-24T08:55:01.146Z,31.38
2018-06-24T08:57:29.759Z,31.62
2018-06-24T08:59:58.377Z,30.95
2018-06-24T09:02:27.351Z,30.53
2018-06-24T09:04:55.941Z,32.28
2018-06-24T09:07:24.731Z,32.03
2018-06-24T09:09:53.329Z,32.60
2018-06-24T09:12:21.994Z,33.95
2018-06-24T09:14:50.635Z,33.89
2018-06-24T09:17:19.264Z,34.45
2018-06-24T09:19:48.284Z,36.25
2018-06-24T09:22:17.239Z,36.30
2018-06-24T09:24:46.090Z,34.91
2018-06-24T09:27:15.373Z,34.64
2018-06-24T09:29:44.019Z,34.50
2018-06-24T09:32:12.641Z,33.87
2018-06-24T09:34:41.227Z,34.35
2018-06-24T09:37:09.886Z,34.59
2018-06-24T09:39:38.599Z,35.42
2018-06-24T09:42:07.237Z,35.06
2018-06-24T09:44:35.815Z,34.96
2018-06-24T09:47:05.020Z,37.30
2018-06-24T09:49:33.954Z,36.42
2018-06-24T09:52:02.719Z,35.15
2018-06-24T09:54:31.306Z,37.11
2018-06-24T09:57:00.163Z,34.87
2018-06-24T09:59:29.058Z,35.55
2018-06-24T10:02:04.055Z,36.95
2018-06-24T10:04:32.659Z,36.47
2018-06-24T10:07:01.261Z,36.64
2018-06-24T10:09:29.929Z,34.89
2018-06-24T10:11:59.148Z,32.23
2018-06-24T10:14:27.755Z,30.00
2018-06-24T10:16:56.437Z,29.31
2018-06-24T10:19:25.000Z,30.65
2018-06-24T10:21:53.687Z,32.49
2018-06-24T10:24:22.336Z,32.93
2018-06-24T10:26:51.342Z,32.00
2018-06-24T10:29:19.932Z,31.27
2018-06-24T10:31:48.554Z,31.15
2018-06-24T10:34:17.313Z,30.90
2018-06-24T10:36:45.905Z,31.65
2018-06-24T10:39:14.508Z,31.13
2018-06-24T10:41:43.157Z,31.21
2018-06-24T10:44:11.778Z,32.74
2018-06-24T10:46:40.382Z,33.01
2018-06-24T10:49:09.006Z,33.67
2018-06-24T10:51:37.644Z,33.08
2018-06-24T10:54:06.584Z,32.83
2018-06-24T10:56:35.840Z,32.04
2018-06-24T10:59:04.484Z,31.07
2018-06-24T11:01:33.095Z,30.13
2018-06-24T11:04:01.658Z,29.30
2018-06-24T11:06:30.211Z,30.15
2018-06-24T11:08:58.802Z,30.32
2018-06-24T11:11:27.591Z,29.17
2018-06-24T11:13:56.206Z,31.07
2018-06-24T11:16:24.781Z,31.52
2018-06-24T11:18:53.739Z,30.40
2018-06-24T11:21:22.318Z,28.90
2018-06-24T11:23:51.136Z,30.39
2018-06-24T11:26:19.993Z,28.40
2018-06-24T11:28:48.777Z,28.52
2018-06-24T11:31:17.409Z,28.24
2018-06-24T11:33:46.049Z,27.46
2018-06-24T11:36:14.716Z,28.29
2018-06-24T11:38:43.332Z,29.07
2018-06-24T11:41:11.990Z,29.44
2018-06-24T11:43:40.598Z,29.67
2018-06-24T11:46:09.273Z,28.99
2018-06-24T11:48:37.958Z,28.04
2018-06-24T11:51:06.589Z,27.65
2018-06-24T11:53:35.383Z,27.39
2018-06-24T11:56:03.999Z,27.44
2018-06-24T11:58:32.618Z,28.67
2018-06-24T12:01:01.310Z,28.66
2018-06-24T12:03:29.950Z,27.93
2018-06-24T12:05:58.564Z,28.88
2018-06-24T12:08:27.427Z,30.01
2018-06-24T12:10:56.118Z,27.63
2018-06-24T12:13:24.707Z,27.51
2018-06-24T12:15:53.454Z,28.62
2018-06-24T12:18:22.025Z,28.71
2018-06-24T12:20:50.629Z,28.75
2018-06-24T12:23:19.227Z,28.29
2018-06-24T12:25:47.898Z,28.46
2018-06-24T12:28:16.468Z,28.98
2018-06-24T12:30:45.106Z,29.90
2018-06-24T12:33:13.709Z,29.83
2018-06-24T12:35:42.307Z,29.18
2018-06-24T12:38:10.887Z,28.47
2018-06-24T12:40:40.280Z,28.79
2018-06-24T12:43:08.875Z,28.83
2018-06-24T12:45:37.513Z,29.48
2018-06-24T12:48:06.105Z,30.65
2018-06-24T12:50:34.698Z,29.73
2018-06-24T12:53:03.283Z,29.41
2018-06-24T12:55:31.888Z,29.57
2018-06-24T12:58:00.502Z,30.23
2018-06-24T13:00:30.099Z,29.47
2018-06-24T13:02:58.496Z,29.31
2018-06-24T13:05:27.329Z,28.62
2018-06-24T13:07:55.889Z,29.03
2018-06-24T13:10:24.591Z,28.94
2018-06-24T13:12:53.172Z,26.96
2018-06-24T13:15:21.754Z,24.79
2018-06-24T13:17:50.434Z,24.20
2018-06-24T13:20:19.070Z,24.29
2018-06-24T13:22:47.706Z,22.64
2018-06-24T13:25:16.301Z,22.87
2018-06-24T13:27:44.932Z,23.17
2018-06-24T13:30:13.604Z,25.28
2018-06-24T13:32:43.148Z,28.29
2018-06-24T13:35:11.748Z,29.69
2018-06-24T13:37:40.384Z,29.81
2018-06-24T13:40:08.992Z,30.00
2018-06-24T13:42:37.705Z,29.96
2018-06-24T13:45:07.924Z,30.34
2018-06-24T13:47:36.543Z,31.04
2018-06-24T13:50:05.232Z,31.18
2018-06-24T13:52:33.804Z,31.19
2018-06-24T13:55:02.414Z,31.46
2018-06-24T13:57:30.994Z,30.96
2018-06-24T13:59:59.651Z,31.51
2018-06-24T14:02:28.309Z,31.30
2018-06-24T14:04:57.025Z,30.56
2018-06-24T14:07:25.651Z,30.93
2018-06-24T14:09:54.258Z,31.26
2018-06-24T14:12:22.873Z,30.96
2018-06-24T14:14:51.530Z,31.98
2018-06-24T14:17:20.251Z,31.25
2018-06-24T14:19:48.883Z,31.06
2018-06-24T14:22:17.526Z,31.51
2018-06-24T14:24:46.137Z,31.21
2018-06-24T14:27:14.762Z,32.00
2018-06-24T14:29:43.378Z,32.80
2018-06-24T14:32:12.543Z,31.32
2018-06-24T14:34:41.146Z,31.15
2018-06-24T14:37:09.918Z,31.01
2018-06-24T14:39:38.542Z,32.18
2018-06-24T14:42:07.239Z,31.58
2018-06-24T14:44:36.139Z,31.98
2018-06-24T14:47:04.928Z,32.17
2018-06-24T14:49:33.575Z,31.71
2018-06-24T14:52:02.304Z,32.36
2018-06-24T14:54:30.904Z,32.12
2018-06-24T14:56:59.720Z,33.12
2018-06-24T14:59:28.684Z,31.92
2018-06-24T15:01:57.248Z,32.69
2018-06-24T15:04:26.148Z,31.86
2018-06-24T15:06:54.847Z,32.56
2018-06-24T15:09:23.459Z,32.76
2018-06-24T15:11:52.064Z,32.83
2018-06-24T15:14:20.694Z,32.00
2018-06-24T15:16:49.367Z,32.82
2018-06-24T15:19:17.986Z,31.19
2018-06-24T15:21:46.900Z,31.90
2018-06-24T15:24:15.517Z,32.26
2018-06-24T15:26:44.144Z,32.84
2018-06-24T15:29:12.784Z,32.56
2018-06-24T15:31:41.408Z,32.13
2018-06-24T15:34:10.034Z,33.09
2018-06-24T15:36:38.643Z,32.52
2018-06-24T15:39:09.271Z,32.24
2018-06-24T15:41:37.956Z,32.90
2018-06-24T15:44:06.823Z,32.54
2018-06-24T15:46:35.630Z,32.58
2018-06-24T15:49:04.243Z,33.71
2018-06-24T15:51:32.884Z,33.59
2018-06-24T15:54:01.452Z,32.91
2018-06-24T15:56:30.140Z,33.15
2018-06-24T15:58:58.727Z,34.36
2018-06-24T16:01:27.316Z,36.30
2018-06-24T16:03:55.960Z,36.93
2018-06-24T16:06:24.640Z,36.90
2018-06-24T16:08:53.766Z,38.34
2018-06-24T16:11:22.600Z,37.28
2018-06-24T16:13:51.232Z,38.02
2018-06-24T16:16:19.849Z,38.01
2018-06-24T16:18:49.175Z,38.29
2018-06-24T16:21:18.163Z,38.47
2018-06-24T16:23:47.041Z,39.47
2018-06-24T16:26:16.439Z,38.38
2018-06-24T16:28:45.330Z,39.88
2018-06-24T16:31:13.947Z,39.86
2018-06-24T16:33:42.833Z,38.96
2018-06-24T16:36:11.706Z,40.23
2018-06-24T16:38:40.289Z,40.23
2018-06-24T16:41:08.904Z,40.80
2018-06-24T16:43:37.792Z,40.43
2018-06-24T16:46:06.454Z,41.28
2018-06-24T16:48:35.436Z,41.84
2018-06-24T16:51:04.085Z,41.96
2018-06-24T16:53:32.702Z,42.63
2018-06-24T16:56:02.363Z,42.67
2018-06-24T16:58:30.970Z,42.73
2018-06-24T17:00:59.779Z,43.69
2018-06-24T17:03:28.460Z,43.17
2018-06-24T17:05:57.163Z,43.81
2018-06-24T17:08:25.850Z,43.41
2018-06-24T17:10:54.440Z,43.72
2018-06-24T17:13:23.029Z,43.43
2018-06-24T17:15:51.700Z,43.43
2018-06-24T17:18:20.308Z,43.42
2018-06-24T17:20:49.150Z,43.80
2018-06-24T17:23:17.769Z,43.43
2018-06-24T17:25:46.383Z,44.74
2018-06-24T17:28:15.011Z,44.70
2018-06-24T17:30:43.873Z,44.53
2018-06-24T17:33:12.683Z,44.66
2018-06-24T17:35:41.292Z,45.00
2018-06-24T17:38:09.884Z,45.06
2018-06-24T17:40:38.525Z,44.67
2018-06-24T17:43:07.213Z,44.62
2018-06-24T17:45:35.809Z,45.04
2018-06-24T17:48:04.494Z,45.42
2018-06-24T17:50:33.165Z,45.25
2018-06-24T17:53:01.819Z,45.00
2018-06-24T17:55:31.137Z,45.10
2018-06-24T17:57:59.824Z,44.88
2018-06-24T18:00:28.560Z,45.24
2018-06-24T18:02:57.176Z,45.31
2018-06-24T18:05:25.742Z,45.72
2018-06-24T18:07:54.393Z,45.92
2018-06-24T18:10:23.000Z,45.30
2018-06-24T18:12:51.711Z,46.12
2018-06-24T18:15:20.368Z,46.44
2018-06-24T18:17:49.096Z,46.77
2018-06-24T18:20:17.723Z,46.89
2018-06-24T18:22:46.386Z,47.02
2018-06-24T18:25:14.949Z,46.30
2018-06-24T18:27:43.594Z,46.62
2018-06-24T18:30:12.225Z,47.24
2018-06-24T18:32:40.907Z,46.50
2018-06-24T18:35:09.521Z,47.03
2018-06-24T18:37:38.196Z,47.06
2018-06-24T18:40:06.766Z,47.47
2018-06-24T18:42:35.475Z,46.90
2018-06-24T18:45:04.225Z,48.03
2018-06-24T18:47:33.037Z,48.09
2018-06-24T18:50:01.617Z,48.09
2018-06-24T18:52:30.249Z,48.89
2018-06-24T18:54:58.870Z,48.26
2018-06-24T18:57:27.551Z,48.40
2018-06-24T18:59:56.139Z,48.77
2018-06-24T19:02:25.121Z,47.86
2018-06-24T19:04:53.724Z,48.86
2018-06-24T19:07:22.407Z,49.70
2018-06-24T19:09:51.959Z,49.05
2018-06-24T19:12:20.619Z,49.21
2018-06-24T19:14:49.603Z,49.79
2018-06-24T19:17:18.573Z,48.92
2018-06-24T19:19:47.292Z,48.62
2018-06-24T19:22:16.012Z,49.37
2018-06-24T19:24:44.682Z,49.26
2018-06-24T19:27:13.431Z,50.02
2018-06-24T19:29:42.048Z,48.50
2018-06-24T19:32:10.676Z,48.83
2018-06-24T19:34:39.351Z,50.24
2018-06-24T19:37:07.939Z,50.19
2018-06-24T19:39:36.538Z,50.42
2018-06-24T19:42:08.276Z,50.73
2018-06-24T19:44:36.975Z,51.19
2018-06-24T19:47:06.432Z,51.21
2018-06-24T19:49:35.091Z,51.90
2018-06-24T19:52:03.906Z,51.37
2018-06-24T19:54:32.988Z,52.43
2018-06-24T19:57:01.878Z,51.84
2018-06-24T19:59:30.828Z,52.05
2018-06-24T20:01:59.888Z,51.72
2018-06-24T20:04:28.622Z,52.62
2018-06-24T20:06:57.266Z,54.04
2018-06-24T20:09:26.289Z,53.51
2018-06-24T20:11:54.994Z,53.59
2018-06-24T20:14:23.936Z,53.01
2018-06-24T20:16:52.715Z,53.51
2018-06-24T20:19:21.718Z,54.51
2018-06-24T20:21:50.409Z,55.32
2018-06-24T20:24:18.958Z,55.04
2018-06-24T20:26:48.396Z,55.99
2018-06-24T20:29:17.025Z,55.20
2018-06-24T20:31:45.617Z,55.79
2018-06-24T20:34:14.395Z,55.74
2018-06-24T20:36:43.651Z,55.86
2018-06-24T20:39:12.330Z,55.75
2018-06-24T20:41:41.281Z,55.84
2018-06-24T20:44:09.886Z,55.07
2018-06-24T20:46:38.508Z,55.50
2018-06-24T20:49:07.507Z,55.12
2018-06-24T20:51:36.119Z,55.38
2018-06-24T20:54:04.786Z,55.12
2018-06-24T20:56:33.400Z,54.82
2018-06-24T20:59:03.018Z,56.49
2018-06-24T21:01:31.613Z,57.30
2018-06-24T21:04:00.374Z,57.77
2018-06-24T21:06:28.966Z,57.24
2018-06-24T21:08:57.636Z,57.42
2018-06-24T21:11:26.240Z,57.87
2018-06-24T21:13:55.491Z,58.74
2018-06-24T21:16:24.170Z,58.13
2018-06-24T21:18:52.797Z,58.66
2018-06-24T21:21:22.275Z,59.14
2018-06-24T21:23:50.872Z,58.58
2018-06-24T21:26:19.587Z,58.81
2018-06-24T21:28:48.186Z,58.17
2018-06-24T21:31:16.788Z,57.67
2018-06-24T21:33:46.610Z,58.16
2018-06-24T21:36:15.549Z,58.04
2018-06-24T21:38:44.193Z,59.66
2018-06-24T21:41:12.833Z,61.01
2018-06-24T21:43:41.463Z,60.01
2018-06-24T21:46:10.327Z,61.08
2018-06-24T21:48:39.855Z,60.25
2018-06-24T21:51:08.555Z,61.60
2018-06-24T21:53:37.182Z,61.45
2018-06-24T21:56:05.775Z,62.25
2018-06-24T21:58:34.448Z,61.71
2018-06-24T22:01:03.095Z,61.54
2018-06-24T22:03:31.760Z,61.65
2018-06-24T22:06:00.371Z,61.78
2018-06-24T22:08:28.963Z,61.29
2018-06-24T22:10:57.639Z,61.93
2018-06-24T22:13:26.261Z,62.88
2018-06-24T22:15:54.876Z,63.19
2018-06-24T22:18:23.488Z,63.32
2018-06-24T22:20:52.131Z,64.46
2018-06-24T22:23:20.731Z,65.38
2018-06-24T22:25:49.319Z,65.59
2018-06-24T22:28:17.992Z,65.08
2018-06-24T22:30:46.574Z,65.36
2018-06-24T22:33:15.276Z,65.22
2018-06-24T22:35:43.911Z,64.34
2018-06-24T22:38:12.612Z,63.45
2018-06-24T22:40:41.225Z,62.67
2018-06-24T22:43:09.816Z,63.31
2018-06-24T22:45:38.420Z,63.17
2018-06-24T22:48:07.019Z,63.21
2018-06-24T22:50:35.656Z,63.43
2018-06-24T22:53:04.243Z,63.96
2018-06-24T22:55:32.827Z,63.90
2018-06-24T22:58:01.392Z,63.82
2018-06-24T23:00:30.047Z,63.64
2018-06-24T23:03:06.359Z,63.96
2018-06-24T23:05:34.951Z,63.63
2018-06-24T23:08:03.555Z,63.62
2018-06-24T23:10:32.120Z,63.30
2018-06-24T23:13:00.687Z,63.72
2018-06-24T23:15:29.326Z,64.87
2018-06-24T23:17:57.921Z,64.05
2018-06-24T23:20:26.552Z,64.47
2018-06-24T23:22:55.129Z,64.92
2018-06-24T23:25:23.821Z,65.37
2018-06-24T23:27:52.390Z,64.80
2018-06-24T23:30:21.054Z,65.55
2018-06-24T23:32:49.615Z,65.17
2018-06-24T23:35:18.244Z,65.52
2018-06-24T23:37:46.858Z,65.38
2018-06-24T23:40:15.446Z,65.29
2018-06-24T23:42:44.886Z,65.49
2018-06-24T23:45:13.564Z,66.35
2018-06-24T23:47:42.173Z,66.60
2018-06-24T23:50:10.781Z,66.30
2018-06-24T23:52:39.382Z,66.82
2018-06-24T23:55:08.020Z,66.96
2018-06-24T23:57:36.582Z,66.32
